sensor_id;sensor_type;location;lat;lon;timestamp;pressure;altitude;pressure_sealevel;temperature;humidity
63654;BME280;49809;47.418;19.080;2023-06-22T00:00:24;100725.75;;;21.16;100.00
63654;BME280;49809;47.418;19.080;2023-06-22T00:04:16;100704.03;;;21.13;100.00
63654;BME280;49809;47.418;19.080;2023-06-22T00:12:04;100697.97;;;21.07;100.00
63654;BME280;49809;47.418;19.080;2023-06-22T00:15:44;100673.28;;;21.05;100.00
63654;BME280;49809;47.418;19.080;2023-06-22T00:19:41;100704.59;;;21.01;100.00
63654;BME280;49809;47.418;19.080;2023-06-22T00:23:24;100709.38;;;21.04;100.00
63654;BME280;49809;47.418;19.080;2023-06-22T00:27:04;100703.03;;;21.00;100.00
63654;BME280;49809;47.418;19.080;2023-06-22T00:30:41;100706.03;;;20.99;100.00
63654;BME280;49809;47.418;19.080;2023-06-22T00:34:20;100688.16;;;21.03;100.00
63654;BME280;49809;47.418;19.080;2023-06-22T00:37:59;100696.19;;;20.94;100.00
63654;BME280;49809;47.418;19.080;2023-06-22T00:41:30;100706.59;;;20.87;100.00
63654;BME280;49809;47.418;19.080;2023-06-22T00:45:10;100721.81;;;20.92;100.00
63654;BME280;49809;47.418;19.080;2023-06-22T00:49:02;100717.72;;;20.94;100.00
63654;BME280;49809;47.418;19.080;2023-06-22T00:52:31;100723.09;;;20.94;100.00
63654;BME280;49809;47.418;19.080;2023-06-22T00:56:13;100722.00;;;20.95;100.00
63654;BME280;49809;47.418;19.080;2023-06-22T01:00:30;100721.03;;;20.91;100.00
63654;BME280;49809;47.418;19.080;2023-06-22T01:04:09;100714.50;;;20.83;100.00
63654;BME280;49809;47.418;19.080;2023-06-22T01:12:04;100711.16;;;20.78;100.00
63654;BME280;49809;47.418;19.080;2023-06-22T01:16:17;100703.28;;;20.81;100.00
63654;BME280;49809;47.418;19.080;2023-06-22T01:20:00;100696.47;;;20.84;100.00
63654;BME280;49809;47.418;19.080;2023-06-22T01:32:00;100686.62;;;21.10;100.00
63654;BME280;49809;47.418;19.080;2023-06-22T01:35:40;100691.56;;;21.17;100.00
63654;BME280;49809;47.418;19.080;2023-06-22T01:43:10;100685.88;;;21.18;100.00
63654;BME280;49809;47.418;19.080;2023-06-22T01:46:46;100681.59;;;21.17;100.00
63654;BME280;49809;47.418;19.080;2023-06-22T01:50:24;100674.37;;;21.04;100.00
63654;BME280;49809;47.418;19.080;2023-06-22T01:54:06;100679.28;;;21.02;100.00
63654;BME280;49809;47.418;19.080;2023-06-22T01:57:41;100675.00;;;21.01;100.00
63654;BME280;49809;47.418;19.080;2023-06-22T02:01:13;100682.56;;;20.91;100.00
63654;BME280;49809;47.418;19.080;2023-06-22T02:05:05;100692.66;;;20.76;100.00
63654;BME280;49809;47.418;19.080;2023-06-22T02:08:57;100696.72;;;20.74;100.00
63654;BME280;49809;47.418;19.080;2023-06-22T02:12:37;100699.09;;;20.67;100.00
63654;BME280;49809;47.418;19.080;2023-06-22T02:16:17;100690.53;;;20.65;100.00
63654;BME280;49809;47.418;19.080;2023-06-22T02:19:44;100699.69;;;20.64;100.00
63654;BME280;49809;47.418;19.080;2023-06-22T02:23:38;100703.12;;;20.56;100.00
63654;BME280;49809;47.418;19.080;2023-06-22T02:27:15;100705.06;;;20.64;100.00
63654;BME280;49809;47.418;19.080;2023-06-22T02:30:54;100713.81;;;20.69;100.00
63654;BME280;49809;47.418;19.080;2023-06-22T02:34:36;100708.00;;;20.76;100.00
63654;BME280;49809;47.418;19.080;2023-06-22T02:38:43;100713.72;;;20.83;100.00
63654;BME280;49809;47.418;19.080;2023-06-22T02:42:47;100711.06;;;20.92;100.00
63654;BME280;49809;47.418;19.080;2023-06-22T02:47:10;100716.62;;;20.95;100.00
63654;BME280;49809;47.418;19.080;2023-06-22T02:57:49;100717.94;;;21.06;100.00
63654;BME280;49809;47.418;19.080;2023-06-22T03:01:31;100718.72;;;21.07;100.00
63654;BME280;49809;47.418;19.080;2023-06-22T03:05:24;100726.66;;;21.12;100.00
63654;BME280;49809;47.418;19.080;2023-06-22T03:09:03;100717.47;;;21.13;100.00
63654;BME280;49809;47.418;19.080;2023-06-22T03:13:08;100716.81;;;21.07;100.00
63654;BME280;49809;47.418;19.080;2023-06-22T03:16:48;100720.62;;;21.06;100.00
63654;BME280;49809;47.418;19.080;2023-06-22T03:20:35;100719.34;;;21.04;100.00
63654;BME280;49809;47.418;19.080;2023-06-22T03:24:16;100720.75;;;21.01;100.00
63654;BME280;49809;47.418;19.080;2023-06-22T03:28:09;100724.44;;;21.05;100.00
63654;BME280;49809;47.418;19.080;2023-06-22T03:35:34;100718.31;;;21.13;100.00
63654;BME280;49809;47.418;19.080;2023-06-22T03:39:12;100730.84;;;21.18;100.00
63654;BME280;49809;47.418;19.080;2023-06-22T03:42:48;100729.41;;;21.20;100.00
63654;BME280;49809;47.418;19.080;2023-06-22T03:46:31;100716.31;;;21.28;100.00
63654;BME280;49809;47.418;19.080;2023-06-22T03:50:17;100712.38;;;21.34;100.00
63654;BME280;49809;47.418;19.080;2023-06-22T03:53:49;100720.31;;;21.39;100.00
63654;BME280;49809;47.418;19.080;2023-06-22T03:57:38;100718.56;;;21.43;100.00
63654;BME280;49809;47.418;19.080;2023-06-22T04:01:20;100717.31;;;21.49;100.00
63654;BME280;49809;47.418;19.080;2023-06-22T04:09:26;100722.88;;;21.61;100.00
63654;BME280;49809;47.418;19.080;2023-06-22T04:13:19;100729.06;;;21.79;100.00
63654;BME280;49809;47.418;19.080;2023-06-22T04:17:15;100729.56;;;21.89;100.00
63654;BME280;49809;47.418;19.080;2023-06-22T04:20:56;100730.56;;;22.02;100.00
63654;BME280;49809;47.418;19.080;2023-06-22T04:28:14;100727.72;;;22.16;100.00
63654;BME280;49809;47.418;19.080;2023-06-22T04:32:09;100730.38;;;22.33;100.00
63654;BME280;49809;47.418;19.080;2023-06-22T04:35:31;100735.28;;;22.48;99.76
63654;BME280;49809;47.418;19.080;2023-06-22T04:39:14;100732.91;;;22.46;100.00
63654;BME280;49809;47.418;19.080;2023-06-22T04:42:59;100733.69;;;22.64;100.00
63654;BME280;49809;47.418;19.080;2023-06-22T04:46:38;100735.59;;;22.64;97.75
63654;BME280;49809;47.418;19.080;2023-06-22T04:50:19;100732.88;;;22.72;97.15
63654;BME280;49809;47.418;19.080;2023-06-22T04:53:59;100740.78;;;22.86;95.63
63654;BME280;49809;47.418;19.080;2023-06-22T04:57:39;100742.16;;;23.01;93.04
63654;BME280;49809;47.418;19.080;2023-06-22T05:10:13;100764.00;;;23.25;91.09
63654;BME280;49809;47.418;19.080;2023-06-22T05:14:09;100768.41;;;23.29;90.32
63654;BME280;49809;47.418;19.080;2023-06-22T05:17:53;100771.69;;;23.44;87.71
63654;BME280;49809;47.418;19.080;2023-06-22T05:21:38;100780.50;;;23.32;88.55
63654;BME280;49809;47.418;19.080;2023-06-22T05:25:02;100782.53;;;23.35;87.14
63654;BME280;49809;47.418;19.080;2023-06-22T05:28:23;100783.28;;;23.44;88.82
63654;BME280;49809;47.418;19.080;2023-06-22T05:31:52;100792.94;;;23.62;87.28
63654;BME280;49809;47.418;19.080;2023-06-22T05:35:41;100792.22;;;23.36;86.30
63654;BME280;49809;47.418;19.080;2023-06-22T05:39:12;100792.16;;;23.82;85.97
63654;BME280;49809;47.418;19.080;2023-06-22T05:42:42;100788.66;;;23.82;84.18
63654;BME280;49809;47.418;19.080;2023-06-22T05:45:47;100780.16;;;23.92;81.16
63654;BME280;49809;47.418;19.080;2023-06-22T05:49:25;100795.19;;;24.10;79.94
63654;BME280;49809;47.418;19.080;2023-06-22T05:52:52;100794.50;;;24.55;77.45
63654;BME280;49809;47.418;19.080;2023-06-22T05:56:00;100797.34;;;24.58;76.18
63654;BME280;49809;47.418;19.080;2023-06-22T05:59:03;100798.69;;;24.64;75.85
63654;BME280;49809;47.418;19.080;2023-06-22T06:02:07;100797.50;;;24.74;74.24
63654;BME280;49809;47.418;19.080;2023-06-22T06:05:12;100802.34;;;25.01;74.23
63654;BME280;49809;47.418;19.080;2023-06-22T06:08:34;100811.19;;;24.78;73.66
63654;BME280;49809;47.418;19.080;2023-06-22T06:11:38;100805.59;;;24.62;74.36
63654;BME280;49809;47.418;19.080;2023-06-22T06:14:41;100802.59;;;24.76;72.89
63654;BME280;49809;47.418;19.080;2023-06-22T06:17:49;100803.47;;;25.00;71.50
63654;BME280;49809;47.418;19.080;2023-06-22T06:21:09;100800.34;;;25.10;69.57
63654;BME280;49809;47.418;19.080;2023-06-22T06:24:16;100811.41;;;25.30;67.89
63654;BME280;49809;47.418;19.080;2023-06-22T06:27:19;100802.31;;;25.59;66.25
63654;BME280;49809;47.418;19.080;2023-06-22T06:30:24;100798.12;;;25.73;66.56
63654;BME280;49809;47.418;19.080;2023-06-22T06:33:27;100785.69;;;25.84;66.94
63654;BME280;49809;47.418;19.080;2023-06-22T06:36:31;100791.53;;;25.86;66.91
63654;BME280;49809;47.418;19.080;2023-06-22T06:39:36;100795.75;;;25.84;65.83
63654;BME280;49809;47.418;19.080;2023-06-22T06:43:02;100792.28;;;26.23;65.00
63654;BME280;49809;47.418;19.080;2023-06-22T06:46:05;100787.47;;;25.92;61.98
63654;BME280;49809;47.418;19.080;2023-06-22T06:49:09;100781.16;;;26.84;60.66
63654;BME280;49809;47.418;19.080;2023-06-22T06:52:13;100776.81;;;27.11;59.48
63654;BME280;49809;47.418;19.080;2023-06-22T06:55:22;100784.28;;;27.30;58.75
63654;BME280;49809;47.418;19.080;2023-06-22T06:58:28;100786.09;;;27.25;57.64
63654;BME280;49809;47.418;19.080;2023-06-22T07:02:14;100783.97;;;27.66;57.60
63654;BME280;49809;47.418;19.080;2023-06-22T07:05:25;100781.44;;;27.42;58.05
63654;BME280;49809;47.418;19.080;2023-06-22T07:08:38;100782.13;;;27.70;58.08
63654;BME280;49809;47.418;19.080;2023-06-22T07:11:44;100779.44;;;27.89;55.25
63654;BME280;49809;47.418;19.080;2023-06-22T07:14:47;100772.81;;;28.06;57.17
63654;BME280;49809;47.418;19.080;2023-06-22T07:17:50;100769.31;;;28.25;55.68
63654;BME280;49809;47.418;19.080;2023-06-22T07:20:58;100768.47;;;28.82;53.14
63654;BME280;49809;47.418;19.080;2023-06-22T07:24:35;100767.00;;;28.65;53.16
63654;BME280;49809;47.418;19.080;2023-06-22T07:28:02;100781.72;;;29.52;51.24
63654;BME280;49809;47.418;19.080;2023-06-22T07:31:10;100776.09;;;29.94;50.76
63654;BME280;49809;47.418;19.080;2023-06-22T07:34:44;100770.19;;;30.51;48.71
63654;BME280;49809;47.418;19.080;2023-06-22T07:37:47;100771.19;;;31.72;48.21
63654;BME280;49809;47.418;19.080;2023-06-22T07:41:05;100780.38;;;32.04;45.93
63654;BME280;49809;47.418;19.080;2023-06-22T07:44:48;100780.25;;;31.83;43.89
63654;BME280;49809;47.418;19.080;2023-06-22T07:47:58;100777.88;;;33.46;42.41
63654;BME280;49809;47.418;19.080;2023-06-22T07:51:21;100781.03;;;32.91;42.54
63654;BME280;49809;47.418;19.080;2023-06-22T07:54:47;100775.91;;;33.64;40.36
63654;BME280;49809;47.418;19.080;2023-06-22T07:58:18;100774.97;;;34.20;41.36
63654;BME280;49809;47.418;19.080;2023-06-22T08:01:56;100766.59;;;34.45;40.63
63654;BME280;49809;47.418;19.080;2023-06-22T08:05:24;100766.25;;;35.39;39.10
63654;BME280;49809;47.418;19.080;2023-06-22T08:09:06;100757.88;;;35.09;39.33
63654;BME280;49809;47.418;19.080;2023-06-22T12:10:10;100633.41;;;40.60;29.11
63654;BME280;49809;47.418;19.080;2023-06-22T12:14:08;100625.28;;;40.18;29.22
63654;BME280;49809;47.418;19.080;2023-06-22T12:36:17;100599.94;;;41.10;27.32
63654;BME280;49809;47.418;19.080;2023-06-22T12:49:22;100594.41;;;38.38;32.63
63654;BME280;49809;47.418;19.080;2023-06-22T13:05:39;100585.97;;;37.01;34.23
63654;BME280;49809;47.418;19.080;2023-06-22T13:09:18;100580.59;;;36.01;36.20
63654;BME280;49809;47.418;19.080;2023-06-22T13:13:05;100569.97;;;36.49;36.36
63654;BME280;49809;47.418;19.080;2023-06-22T13:16:22;100563.84;;;36.62;35.43
63654;BME280;49809;47.418;19.080;2023-06-22T13:19:50;100563.13;;;36.11;36.12
63654;BME280;49809;47.418;19.080;2023-06-22T13:23:28;100551.94;;;35.95;35.79
63654;BME280;49809;47.418;19.080;2023-06-22T13:26:52;100545.78;;;35.87;37.80
63654;BME280;49809;47.418;19.080;2023-06-22T13:29:59;100544.25;;;34.92;39.08
63654;BME280;49809;47.418;19.080;2023-06-22T13:33:02;100549.59;;;35.06;38.11
63654;BME280;49809;47.418;19.080;2023-06-22T13:36:07;100546.47;;;35.04;38.56
63654;BME280;49809;47.418;19.080;2023-06-22T13:39:16;100553.72;;;35.24;39.13
63654;BME280;49809;47.418;19.080;2023-06-22T13:42:20;100548.78;;;35.09;38.96
63654;BME280;49809;47.418;19.080;2023-06-22T13:45:24;100544.19;;;34.99;38.56
63654;BME280;49809;47.418;19.080;2023-06-22T13:48:31;100549.84;;;34.84;39.80
63654;BME280;49809;47.418;19.080;2023-06-22T13:51:39;100546.16;;;34.98;38.97
63654;BME280;49809;47.418;19.080;2023-06-22T13:54:52;100538.41;;;34.86;39.44
63654;BME280;49809;47.418;19.080;2023-06-22T13:58:23;100538.41;;;34.86;38.83
63654;BME280;49809;47.418;19.080;2023-06-22T14:01:59;100539.59;;;34.88;39.59
63654;BME280;49809;47.418;19.080;2023-06-22T14:05:28;100532.06;;;34.55;38.96
63654;BME280;49809;47.418;19.080;2023-06-22T14:08:36;100534.66;;;34.73;39.88
63654;BME280;49809;47.418;19.080;2023-06-22T14:12:05;100530.72;;;34.74;38.70
63654;BME280;49809;47.418;19.080;2023-06-22T14:15:40;100527.16;;;35.07;38.91
63654;BME280;49809;47.418;19.080;2023-06-22T14:19:25;100521.44;;;34.95;39.40
63654;BME280;49809;47.418;19.080;2023-06-22T14:22:46;100522.34;;;34.84;38.67
63654;BME280;49809;47.418;19.080;2023-06-22T14:26:25;100515.28;;;34.42;40.01
63654;BME280;49809;47.418;19.080;2023-06-22T14:29:47;100506.28;;;34.42;39.86
63654;BME280;49809;47.418;19.080;2023-06-22T14:32:56;100505.19;;;34.73;40.54
63654;BME280;49809;47.418;19.080;2023-06-22T14:36:43;100507.66;;;34.57;40.90
63654;BME280;49809;47.418;19.080;2023-06-22T14:40:15;100498.28;;;34.55;40.61
63654;BME280;49809;47.418;19.080;2023-06-22T14:43:35;100490.44;;;34.53;39.90
63654;BME280;49809;47.418;19.080;2023-06-22T14:47:11;100486.06;;;34.59;40.47
63654;BME280;49809;47.418;19.080;2023-06-22T14:54:49;100496.50;;;34.37;39.55
63654;BME280;49809;47.418;19.080;2023-06-22T14:58:36;100488.59;;;34.43;39.68
63654;BME280;49809;47.418;19.080;2023-06-22T15:02:16;100487.41;;;34.44;39.73
63654;BME280;49809;47.418;19.080;2023-06-22T15:06:03;100480.38;;;34.39;40.64
63654;BME280;49809;47.418;19.080;2023-06-22T15:09:25;100479.44;;;34.53;39.97
63654;BME280;49809;47.418;19.080;2023-06-22T15:13:30;100480.91;;;34.65;39.80
63654;BME280;49809;47.418;19.080;2023-06-22T15:17:08;100476.41;;;34.81;38.73
63654;BME280;49809;47.418;19.080;2023-06-22T15:20:42;100476.12;;;34.72;39.41
63654;BME280;49809;47.418;19.080;2023-06-22T15:28:06;100464.44;;;34.61;38.93
63654;BME280;49809;47.418;19.080;2023-06-22T15:31:45;100460.28;;;34.83;38.66
63654;BME280;49809;47.418;19.080;2023-06-22T15:35:19;100464.00;;;33.81;39.03
63654;BME280;49809;47.418;19.080;2023-06-22T15:38:58;100467.03;;;34.38;39.34
63654;BME280;49809;47.418;19.080;2023-06-22T15:42:35;100469.44;;;34.36;38.17
63654;BME280;49809;47.418;19.080;2023-06-22T15:46:10;100465.19;;;33.83;40.68
63654;BME280;49809;47.418;19.080;2023-06-22T15:49:39;100472.41;;;33.56;39.65
63654;BME280;49809;47.418;19.080;2023-06-22T15:52:57;100465.25;;;34.21;39.82
63654;BME280;49809;47.418;19.080;2023-06-22T15:56:27;100469.44;;;33.91;39.09
63654;BME280;49809;47.418;19.080;2023-06-22T15:59:54;100464.00;;;34.29;39.60
63654;BME280;49809;47.418;19.080;2023-06-22T16:03:17;100462.62;;;34.07;39.15
63654;BME280;49809;47.418;19.080;2023-06-22T16:06:54;100467.06;;;33.93;39.96
63654;BME280;49809;47.418;19.080;2023-06-22T16:10:22;100467.63;;;33.71;39.96
63654;BME280;49809;47.418;19.080;2023-06-22T16:13:40;100464.03;;;33.18;40.74
63654;BME280;49809;47.418;19.080;2023-06-22T16:17:16;100456.34;;;33.51;41.23
63654;BME280;49809;47.418;19.080;2023-06-22T16:20:37;100455.25;;;33.45;41.41
63654;BME280;49809;47.418;19.080;2023-06-22T16:24:11;100450.84;;;33.58;42.06
63654;BME280;49809;47.418;19.080;2023-06-22T16:27:46;100444.91;;;32.94;43.85
63654;BME280;49809;47.418;19.080;2023-06-22T16:31:25;100448.38;;;33.15;43.79
63654;BME280;49809;47.418;19.080;2023-06-22T16:35:09;100446.56;;;33.53;43.77
63654;BME280;49809;47.418;19.080;2023-06-22T16:38:35;100453.00;;;33.22;44.08
63654;BME280;49809;47.418;19.080;2023-06-22T16:42:06;100449.38;;;33.43;44.76
63654;BME280;49809;47.418;19.080;2023-06-22T16:45:38;100444.28;;;33.45;44.62
63654;BME280;49809;47.418;19.080;2023-06-22T16:49:12;100438.91;;;33.24;45.33
63654;BME280;49809;47.418;19.080;2023-06-22T16:52:48;100432.66;;;33.19;45.46
63654;BME280;49809;47.418;19.080;2023-06-22T16:56:28;100439.00;;;33.02;44.76
63654;BME280;49809;47.418;19.080;2023-06-22T17:00:00;100431.78;;;32.35;46.35
63654;BME280;49809;47.418;19.080;2023-06-22T17:04:04;100436.84;;;32.48;46.51
63654;BME280;49809;47.418;19.080;2023-06-22T17:07:57;100433.37;;;32.33;47.38
63654;BME280;49809;47.418;19.080;2023-06-22T17:11:31;100440.81;;;32.08;47.83
63654;BME280;49809;47.418;19.080;2023-06-22T17:15:03;100446.28;;;31.97;47.39
63654;BME280;49809;47.418;19.080;2023-06-22T17:18:24;100435.75;;;31.88;48.28
63654;BME280;49809;47.418;19.080;2023-06-22T17:21:57;100431.44;;;31.77;49.93
63654;BME280;49809;47.418;19.080;2023-06-22T17:25:27;100433.37;;;31.59;50.75
63654;BME280;49809;47.418;19.080;2023-06-22T17:28:53;100428.28;;;31.46;50.65
63654;BME280;49809;47.418;19.080;2023-06-22T17:32:36;100425.47;;;31.32;50.78
63654;BME280;49809;47.418;19.080;2023-06-22T17:36:13;100416.50;;;31.25;51.59
63654;BME280;49809;47.418;19.080;2023-06-22T17:39:31;100418.41;;;31.14;53.35
63654;BME280;49809;47.418;19.080;2023-06-22T17:42:50;100413.28;;;30.98;53.99
63654;BME280;49809;47.418;19.080;2023-06-22T17:46:34;100408.16;;;30.89;53.48
63654;BME280;49809;47.418;19.080;2023-06-22T17:50:04;100414.00;;;30.81;54.59
63654;BME280;49809;47.418;19.080;2023-06-22T17:53:31;100409.31;;;30.78;54.29
63654;BME280;49809;47.418;19.080;2023-06-22T17:56:52;100413.53;;;30.64;56.26
63654;BME280;49809;47.418;19.080;2023-06-22T17:59:59;100406.47;;;30.53;55.72
63654;BME280;49809;47.418;19.080;2023-06-22T18:03:23;100403.69;;;30.46;56.72
63654;BME280;49809;47.418;19.080;2023-06-22T18:06:57;100401.69;;;30.39;57.40
63654;BME280;49809;47.418;19.080;2023-06-22T18:10:25;100403.56;;;30.28;57.00
63654;BME280;49809;47.418;19.080;2023-06-22T18:14:07;100401.19;;;30.19;57.61
63654;BME280;49809;47.418;19.080;2023-06-22T18:17:35;100401.88;;;30.06;57.74
63654;BME280;49809;47.418;19.080;2023-06-22T18:21:04;100403.75;;;29.95;58.58
63654;BME280;49809;47.418;19.080;2023-06-22T18:24:31;100404.78;;;29.83;59.51
63654;BME280;49809;47.418;19.080;2023-06-22T18:28:13;100405.88;;;29.71;59.21
63654;BME280;49809;47.418;19.080;2023-06-22T18:31:50;100405.34;;;29.55;61.33
63654;BME280;49809;47.418;19.080;2023-06-22T18:35:24;100408.72;;;29.38;62.23
63654;BME280;49809;47.418;19.080;2023-06-22T18:38:56;100410.41;;;29.20;63.86
63654;BME280;49809;47.418;19.080;2023-06-22T18:42:29;100413.28;;;28.97;64.29
63654;BME280;49809;47.418;19.080;2023-06-22T18:45:51;100409.22;;;28.80;65.83
63654;BME280;49809;47.418;19.080;2023-06-22T18:49:15;100416.00;;;28.67;66.64
63654;BME280;49809;47.418;19.080;2023-06-22T18:52:35;100424.34;;;28.51;68.10
63654;BME280;49809;47.418;19.080;2023-06-22T18:56:11;100425.69;;;28.35;68.50
63654;BME280;49809;47.418;19.080;2023-06-22T19:00:04;100437.88;;;28.18;69.16
63654;BME280;49809;47.418;19.080;2023-06-22T19:03:57;100434.91;;;28.04;69.01
63654;BME280;49809;47.418;19.080;2023-06-22T19:11:26;100450.37;;;27.96;67.18
63654;BME280;49809;47.418;19.080;2023-06-22T19:15:13;100453.13;;;28.00;66.84
63654;BME280;49809;47.418;19.080;2023-06-22T19:22:47;100459.44;;;27.81;68.27
63654;BME280;49809;47.418;19.080;2023-06-22T19:26:17;100473.59;;;27.67;67.98
63654;BME280;49809;47.418;19.080;2023-06-22T19:29:52;100477.25;;;27.56;69.93
63654;BME280;49809;47.418;19.080;2023-06-22T19:33:26;100480.16;;;27.47;69.66
63654;BME280;49809;47.418;19.080;2023-06-22T19:36:54;100482.47;;;27.26;74.30
63654;BME280;49809;47.418;19.080;2023-06-22T19:40:29;100487.44;;;27.20;73.82
63654;BME280;49809;47.418;19.080;2023-06-22T19:44:06;100475.25;;;27.14;73.23
63654;BME280;49809;47.418;19.080;2023-06-22T19:47:27;100471.75;;;26.95;76.81
63654;BME280;49809;47.418;19.080;2023-06-22T19:50:47;100469.50;;;26.81;76.80
63654;BME280;49809;47.418;19.080;2023-06-22T19:54:08;100473.28;;;26.76;77.90
63654;BME280;49809;47.418;19.080;2023-06-22T19:57:34;100476.28;;;26.71;77.13
63654;BME280;49809;47.418;19.080;2023-06-22T20:01:05;100485.31;;;26.60;77.19
63654;BME280;49809;47.418;19.080;2023-06-22T20:04:40;100477.19;;;26.60;77.82
63654;BME280;49809;47.418;19.080;2023-06-22T20:08:05;100474.31;;;26.53;78.12
63654;BME280;49809;47.418;19.080;2023-06-22T20:11:09;100481.50;;;26.45;79.30
63654;BME280;49809;47.418;19.080;2023-06-22T20:14:19;100482.56;;;26.41;78.45
63654;BME280;49809;47.418;19.080;2023-06-22T20:17:26;100481.63;;;26.33;80.32
63654;BME280;49809;47.418;19.080;2023-06-22T20:20:59;100479.06;;;26.24;81.28
63654;BME280;49809;47.418;19.080;2023-06-22T20:24:07;100469.97;;;26.32;79.12
63654;BME280;49809;47.418;19.080;2023-06-22T20:28:02;100486.78;;;26.22;80.41
63654;BME280;49809;47.418;19.080;2023-06-22T20:31:42;100477.16;;;26.09;81.48
63654;BME280;49809;47.418;19.080;2023-06-22T20:34:49;100470.13;;;26.08;80.58
63654;BME280;49809;47.418;19.080;2023-06-22T20:37:59;100476.25;;;26.05;80.74
63654;BME280;49809;47.418;19.080;2023-06-22T20:41:35;100483.34;;;25.94;82.72
63654;BME280;49809;47.418;19.080;2023-06-22T20:44:39;100488.31;;;25.92;82.14
63654;BME280;49809;47.418;19.080;2023-06-22T20:47:42;100482.13;;;25.91;81.61
63654;BME280;49809;47.418;19.080;2023-06-22T20:50:47;100484.41;;;25.89;81.73
63654;BME280;49809;47.418;19.080;2023-06-22T20:54:10;100483.41;;;25.82;82.03
63654;BME280;49809;47.418;19.080;2023-06-22T20:57:22;100471.78;;;25.81;81.65
63654;BME280;49809;47.418;19.080;2023-06-22T21:01:05;100456.31;;;25.82;81.66
63654;BME280;49809;47.418;19.080;2023-06-22T21:04:10;100456.12;;;25.90;80.21
63654;BME280;49809;47.418;19.080;2023-06-22T21:07:16;100461.72;;;25.82;80.83
63654;BME280;49809;47.418;19.080;2023-06-22T21:10:21;100463.50;;;25.90;79.77
63654;BME280;49809;47.418;19.080;2023-06-22T21:13:25;100462.97;;;25.84;80.03
63654;BME280;49809;47.418;19.080;2023-06-22T21:16:31;100461.47;;;25.87;79.63
63654;BME280;49809;47.418;19.080;2023-06-22T21:19:35;100467.66;;;25.72;80.73
63654;BME280;49809;47.418;19.080;2023-06-22T21:22:40;100466.25;;;25.62;80.92
63654;BME280;49809;47.418;19.080;2023-06-22T21:25:47;100470.00;;;25.58;81.34
63654;BME280;49809;47.418;19.080;2023-06-22T21:29:13;100475.22;;;25.50;81.73
63654;BME280;49809;47.418;19.080;2023-06-22T21:32:16;100464.63;;;25.45;81.95
63654;BME280;49809;47.418;19.080;2023-06-22T21:35:22;100463.31;;;25.39;82.49
63654;BME280;49809;47.418;19.080;2023-06-22T21:38:27;100467.34;;;25.45;81.70
63654;BME280;49809;47.418;19.080;2023-06-22T21:41:33;100467.84;;;25.35;82.85
63654;BME280;49809;47.418;19.080;2023-06-22T21:44:40;100467.75;;;25.32;82.45
63654;BME280;49809;47.418;19.080;2023-06-22T21:47:45;100466.41;;;25.26;82.88
63654;BME280;49809;47.418;19.080;2023-06-22T21:51:07;100455.50;;;25.22;83.63
63654;BME280;49809;47.418;19.080;2023-06-22T21:54:15;100449.38;;;25.25;83.68
63654;BME280;49809;47.418;19.080;2023-06-22T21:57:20;100439.72;;;25.12;83.91
63654;BME280;49809;47.418;19.080;2023-06-22T22:00:37;100443.75;;;25.18;83.25
63654;BME280;49809;47.418;19.080;2023-06-22T22:03:47;100442.69;;;25.07;84.49
63654;BME280;49809;47.418;19.080;2023-06-22T22:07:20;100438.81;;;25.08;83.85
63654;BME280;49809;47.418;19.080;2023-06-22T22:10:29;100437.16;;;25.03;84.29
63654;BME280;49809;47.418;19.080;2023-06-22T22:13:52;100437.16;;;25.03;83.80
63654;BME280;49809;47.418;19.080;2023-06-22T22:17:02;100428.38;;;24.94;84.66
63654;BME280;49809;47.418;19.080;2023-06-22T22:20:18;100431.34;;;24.89;84.69
63654;BME280;49809;47.418;19.080;2023-06-22T22:23:25;100439.31;;;24.86;84.93
63654;BME280;49809;47.418;19.080;2023-06-22T22:26:37;100434.28;;;24.72;86.18
63654;BME280;49809;47.418;19.080;2023-06-22T22:29:44;100426.84;;;24.69;86.94
63654;BME280;49809;47.418;19.080;2023-06-22T22:32:48;100429.81;;;24.64;86.63
63654;BME280;49809;47.418;19.080;2023-06-22T22:36:00;100420.66;;;24.68;86.17
63654;BME280;49809;47.418;19.080;2023-06-22T22:39:09;100413.34;;;24.57;86.64
63654;BME280;49809;47.418;19.080;2023-06-22T22:42:13;100414.03;;;24.54;87.69
63654;BME280;49809;47.418;19.080;2023-06-22T22:45:16;100420.13;;;24.51;87.60
63654;BME280;49809;47.418;19.080;2023-06-22T22:48:22;100419.94;;;24.44;88.41
63654;BME280;49809;47.418;19.080;2023-06-22T22:51:27;100418.34;;;24.43;87.64
63654;BME280;49809;47.418;19.080;2023-06-22T22:54:33;100418.91;;;24.36;88.34
63654;BME280;49809;47.418;19.080;2023-06-22T22:57:40;100410.34;;;24.34;88.57
63654;BME280;49809;47.418;19.080;2023-06-22T23:00:44;100401.00;;;24.32;88.43
63654;BME280;49809;47.418;19.080;2023-06-22T23:03:47;100389.84;;;24.21;89.32
63654;BME280;49809;47.418;19.080;2023-06-22T23:06:52;100377.47;;;24.20;89.65
63654;BME280;49809;47.418;19.080;2023-06-22T23:09:58;100371.78;;;24.13;90.31
63654;BME280;49809;47.418;19.080;2023-06-22T23:13:05;100367.06;;;24.10;89.91
63654;BME280;49809;47.418;19.080;2023-06-22T23:16:08;100370.00;;;24.05;90.06
63654;BME280;49809;47.418;19.080;2023-06-22T23:19:17;100367.16;;;24.01;90.53
63654;BME280;49809;47.418;19.080;2023-06-22T23:22:20;100366.63;;;23.96;90.80
63654;BME280;49809;47.418;19.080;2023-06-22T23:25:25;100362.56;;;23.90;91.49
63654;BME280;49809;47.418;19.080;2023-06-22T23:28:33;100341.50;;;23.83;91.69